Time;durP1;ratioP1;P1;durP2;ratioP2;P2;SDS_P1;SDS_P2;PMS_P1;PMS_P2;Temp;Humidity;BMP_temperature;BMP_pressure;BME280_temperature;BME280_humidity;BME280_pressure;Samples;Min_cycle;Max_cycle;Signal;HPM_P1;HPM_P2
2023/10/24 18:11:36;;;;;;;6.45;2.90;;;;;;;;;;6788431;19;21493;-83
2023/10/24 18:14:01;;;;;;;7.05;3.00;;;;;;;;;;7345943;19;20015;-84
2023/10/24 18:16:26;;;;;;;6.13;2.85;;;;;;;;;;7351406;19;20022;-84
2023/10/24 18:18:52;;;;;;;6.15;2.60;;;;;;;;;;7338705;19;20002;-89
2023/10/24 18:21:17;;;;;;;7.07;2.88;;;;;;;;;;7351281;19;20047;-81
2023/10/24 18:23:42;;;;;;;6.90;2.65;;;;;;;;;;7357434;19;20070;-82
2023/10/24 18:26:08;;;;;;;8.75;3.50;;;;;;;;;;7345857;19;20009;-85
2023/10/24 18:28:33;;;;;;;9.10;3.35;;;;;;;;;;7328299;19;20649;-83
2023/10/24 18:30:58;;;;;;;8.32;3.95;;;;;;;;;;7361068;19;19999;-84
2023/10/24 18:33:23;;;;;;;8.80;4.05;;;;;;;;;;7361496;19;20273;-78
2023/10/24 18:35:49;;;;;;;9.35;4.30;;;;;;;;;;7360692;19;20261;-85
2023/10/24 18:38:14;;;;;;;12.98;4.70;;;;;;;;;;7364851;19;20013;-80
2023/10/24 18:40:49;;;;;;;7.78;3.38;;;;;;;;;;7360196;19;20026;-79
2023/10/24 18:43:14;;;;;;;8.85;3.80;;;;;;;;;;7357004;19;20097;-80
2023/10/24 18:45:40;;;;;;;11.17;5.23;;;;;;;;;;7362753;19;20090;-87
2023/10/24 18:48:06;;;;;;;8.85;5.55;;;;;;;;;;7326833;19;20323;-80
2023/10/24 18:50:31;;;;;;;8.85;3.85;;;;;;;;;;7352953;19;20083;-80
2023/10/24 18:52:57;;;;;;;7.80;4.07;;;;;;;;;;7350148;19;19990;-83
2023/10/24 18:55:22;;;;;;;11.07;4.55;;;;;;;;;;7347801;19;20565;-82
2023/10/24 18:57:48;;;;;;;11.57;4.53;;;;;;;;;;7343262;19;20645;-83
2023/10/24 19:00:13;;;;;;;10.07;4.97;;;;;;;;;;7359182;19;20255;-86
2023/10/24 19:02:38;;;;;;;11.73;5.28;;;;;;;;;;7354480;19;20006;-81
2023/10/24 19:05:03;;;;;;;11.53;7.37;;;;;;;;;;7366416;19;20005;-86
2023/10/24 19:07:29;;;;;;;16.13;7.63;;;;;;;;;;7334962;19;20897;-86
2023/10/24 19:09:54;;;;;;;18.00;7.45;;;;;;;;;;7359836;19;20478;-83
2023/10/24 19:12:19;;;;;;;11.55;6.93;;;;;;;;;;7361932;19;20007;-83
2023/10/24 19:14:44;;;;;;;11.85;5.70;;;;;;;;;;7362017;19;20383;-79
2023/10/24 19:17:09;;;;;;;12.85;6.50;;;;;;;;;;7370060;19;20025;-84
2023/10/24 19:19:35;;;;;;;10.02;6.07;;;;;;;;;;7367410;19;19998;-81
2023/10/24 19:22:01;;;;;;;10.57;5.70;;;;;;;;;;7369730;19;20476;-88
2023/10/24 19:24:26;;;;;;;11.75;5.60;;;;;;;;;;7367043;19;20109;-79
2023/10/24 19:26:52;;;;;;;20.45;9.35;;;;;;;;;;7359491;19;20013;-83
2023/10/24 19:29:17;;;;;;;14.18;8.73;;;;;;;;;;7362222;19;20094;-82
2023/10/24 19:31:42;;;;;;;17.65;9.57;;;;;;;;;;7367233;19;20053;-83
2023/10/24 19:34:08;;;;;;;14.80;8.85;;;;;;;;;;7351268;19;20014;-84
2023/10/24 19:36:33;;;;;;;15.35;7.68;;;;;;;;;;7358735;19;20002;-81
2023/10/24 19:38:58;;;;;;;10.77;6.35;;;;;;;;;;7355164;19;20409;-82
2023/10/24 19:41:24;;;;;;;13.10;5.15;;;;;;;;;;7355597;19;20505;-85
2023/10/24 19:43:50;;;;;;;9.32;5.18;;;;;;;;;;7357196;19;20592;-82
2023/10/24 19:46:16;;;;;;;8.60;4.57;;;;;;;;;;7369812;19;20602;-84
2023/10/24 19:48:42;;;;;;;10.15;4.00;;;;;;;;;;7362342;19;20043;-78
2023/10/24 19:51:07;;;;;;;12.27;4.78;;;;;;;;;;7364048;19;20485;-78
2023/10/24 19:53:33;;;;;;;21.48;12.82;;;;;;;;;;7362121;19;20009;-86
2023/10/24 19:55:59;;;;;;;27.30;18.15;;;;;;;;;;7361446;19;20007;-85
2023/10/24 19:58:27;;;;;;;14.85;10.25;;;;;;;;;;7363937;19;20007;-82
2023/10/24 20:00:52;;;;;;;16.65;10.07;;;;;;;;;;7359015;19;20503;-80
2023/10/24 20:03:18;;;;;;;12.90;8.30;;;;;;;;;;7367440;19;20010;-81
2023/10/24 20:05:44;;;;;;;12.57;5.65;;;;;;;;;;7357725;19;20311;-85
2023/10/24 20:08:10;;;;;;;12.63;5.03;;;;;;;;;;7363874;19;20481;-81
2023/10/24 20:10:35;;;;;;;10.88;4.13;;;;;;;;;;7356819;19;20015;-85
2023/10/24 20:13:01;;;;;;;11.68;4.80;;;;;;;;;;7365717;19;20006;-83
2023/10/24 20:15:26;;;;;;;10.50;4.45;;;;;;;;;;7366792;19;19995;-88
2023/10/24 20:17:52;;;;;;;8.65;4.10;;;;;;;;;;7363104;19;20417;-79
2023/10/24 20:20:18;;;;;;;10.85;4.13;;;;;;;;;;7368336;19;20002;-80
2023/10/24 20:22:43;;;;;;;9.68;3.90;;;;;;;;;;7360779;19;20430;-88
2023/10/24 20:25:09;;;;;;;10.88;4.47;;;;;;;;;;7360862;19;20002;-85
2023/10/24 20:27:35;;;;;;;7.57;3.80;;;;;;;;;;7358119;19;20322;-85
2023/10/24 20:30:01;;;;;;;8.57;3.95;;;;;;;;;;7362282;19;20002;-81
2023/10/24 20:32:28;;;;;;;8.35;3.78;;;;;;;;;;7368349;19;20028;-79
2023/10/24 20:34:53;;;;;;;8.05;4.40;;;;;;;;;;7359889;19;20038;-83
2023/10/24 20:37:18;;;;;;;5.53;3.40;;;;;;;;;;7365399;19;20550;-80
2023/10/24 20:39:43;;;;;;;9.82;4.10;;;;;;;;;;7357775;19;20016;-84
2023/10/24 20:42:08;;;;;;;10.23;3.97;;;;;;;;;;7353055;19;20550;-82
2023/10/24 20:44:34;;;;;;;11.05;4.53;;;;;;;;;;7349620;19;20379;-82
2023/10/24 20:46:59;;;;;;;7.18;4.28;;;;;;;;;;7355586;19;20023;-84
2023/10/24 20:49:25;;;;;;;11.38;4.85;;;;;;;;;;7335244;19;20351;-80
2023/10/24 20:51:50;;;;;;;9.43;4.78;;;;;;;;;;7350724;19;20398;-83
2023/10/24 20:54:17;;;;;;;9.83;5.13;;;;;;;;;;7361707;19;20062;-79
2023/10/24 20:56:42;;;;;;;9.23;4.80;;;;;;;;;;7351174;19;20232;-86
2023/10/24 20:59:07;;;;;;;11.82;4.90;;;;;;;;;;7363228;19;20121;-79
2023/10/24 21:01:32;;;;;;;10.70;4.67;;;;;;;;;;7350106;19;20536;-86
2023/10/24 21:03:58;;;;;;;12.33;4.90;;;;;;;;;;7357473;19;20274;-85
2023/10/24 21:06:23;;;;;;;10.93;5.00;;;;;;;;;;7361066;19;20576;-81
2023/10/24 21:08:48;;;;;;;11.23;5.75;;;;;;;;;;7361620;19;20228;-78
2023/10/24 21:11:13;;;;;;;10.38;5.35;;;;;;;;;;7340258;19;20010;-80
2023/10/24 21:13:39;;;;;;;11.20;5.32;;;;;;;;;;7366301;19;20023;-89
2023/10/24 21:16:04;;;;;;;12.55;5.75;;;;;;;;;;7365583;19;20127;-85
2023/10/24 21:18:29;;;;;;;10.18;5.10;;;;;;;;;;7366378;19;19999;-79
2023/10/24 21:20:54;;;;;;;15.82;5.65;;;;;;;;;;7359814;19;20007;-81
2023/10/24 21:23:20;;;;;;;13.03;5.93;;;;;;;;;;7365372;19;20411;-79
2023/10/24 21:25:46;;;;;;;11.95;5.60;;;;;;;;;;7359080;19;20243;-79
2023/10/24 21:28:11;;;;;;;12.73;5.60;;;;;;;;;;7364736;19;20048;-82
2023/10/24 21:30:39;;;;;;;11.15;5.60;;;;;;;;;;7365210;19;20075;-79
2023/10/24 21:33:05;;;;;;;10.50;5.57;;;;;;;;;;7357142;19;20479;-82
2023/10/24 21:35:31;;;;;;;11.13;5.63;;;;;;;;;;7354144;19;20550;-83
2023/10/24 21:37:56;;;;;;;15.43;5.93;;;;;;;;;;7364285;19;19999;-79
2023/10/24 21:40:21;;;;;;;9.77;5.43;;;;;;;;;;7354331;19;20451;-85
2023/10/24 21:42:46;;;;;;;10.45;5.88;;;;;;;;;;7353590;19;20251;-83
2023/10/24 21:45:11;;;;;;;11.35;5.32;;;;;;;;;;7354997;19;20521;-81
2023/10/24 21:47:36;;;;;;;9.25;5.10;;;;;;;;;;7318310;19;20122;-85
2023/10/24 21:50:02;;;;;;;9.47;5.30;;;;;;;;;;7344944;19;19995;-80
2023/10/24 21:52:27;;;;;;;10.98;5.40;;;;;;;;;;7357697;19;20877;-84
2023/10/24 21:54:52;;;;;;;12.60;4.67;;;;;;;;;;7354713;19;20444;-81
2023/10/24 21:57:17;;;;;;;11.60;5.60;;;;;;;;;;7359748;19;20244;-85
2023/10/24 21:59:42;;;;;;;10.20;4.78;;;;;;;;;;7315944;19;20734;-85
2023/10/24 22:02:08;;;;;;;8.20;5.07;;;;;;;;;;7344107;19;20655;-85
2023/10/24 22:04:33;;;;;;;11.50;4.80;;;;;;;;;;7363271;19;20248;-82
2023/10/24 22:06:58;;;;;;;8.60;4.37;;;;;;;;;;7331886;19;20238;-80
2023/10/24 22:09:23;;;;;;;8.68;4.22;;;;;;;;;;7361470;19;20755;-81
2023/10/24 22:11:49;;;;;;;6.97;3.70;;;;;;;;;;7332905;19;19995;-81
2023/10/24 22:14:14;;;;;;;8.83;4.03;;;;;;;;;;7361888;19;20025;-84
2023/10/24 22:16:39;;;;;;;10.52;4.60;;;;;;;;;;7363387;19;20273;-81
2023/10/24 22:19:04;;;;;;;8.70;4.28;;;;;;;;;;7357253;19;20003;-80
2023/10/24 22:21:29;;;;;;;7.50;3.80;;;;;;;;;;7362987;19;20002;-80
2023/10/24 22:23:55;;;;;;;10.88;4.10;;;;;;;;;;7361107;19;20897;-85
2023/10/24 22:26:20;;;;;;;10.15;4.43;;;;;;;;;;7357223;19;20010;-81
2023/10/24 22:28:46;;;;;;;11.73;4.85;;;;;;;;;;7360947;19;20361;-85
2023/10/24 22:31:11;;;;;;;11.10;4.53;;;;;;;;;;7361938;19;19998;-81
2023/10/24 22:33:36;;;;;;;12.77;5.32;;;;;;;;;;7372476;19;19994;-84
2023/10/24 22:36:02;;;;;;;11.70;5.20;;;;;;;;;;7363234;19;19999;-83
2023/10/24 22:38:27;;;;;;;10.93;5.05;;;;;;;;;;7370400;19;20231;-82
2023/10/24 22:40:53;;;;;;;11.15;5.60;;;;;;;;;;7355288;19;20002;-87
2023/10/24 22:43:18;;;;;;;13.15;5.50;;;;;;;;;;7357287;19;20002;-79
2023/10/24 22:45:43;;;;;;;10.40;5.40;;;;;;;;;;7370548;19;20013;-80
2023/10/24 22:48:08;;;;;;;14.13;5.03;;;;;;;;;;7368608;19;19994;-79
2023/10/24 22:50:34;;;;;;;10.88;5.22;;;;;;;;;;7366988;19;20267;-80
2023/10/24 22:52:59;;;;;;;13.82;5.78;;;;;;;;;;7363720;19;20015;-84
2023/10/24 22:55:24;;;;;;;8.53;4.40;;;;;;;;;;7362675;19;20014;-80
2023/10/24 22:57:49;;;;;;;10.25;4.60;;;;;;;;;;7366829;19;20294;-86
2023/10/24 23:00:15;;;;;;;11.23;4.28;;;;;;;;;;7371168;19;20581;-79
2023/10/24 23:02:40;;;;;;;11.60;4.35;;;;;;;;;;7367472;19;20003;-85
2023/10/24 23:05:05;;;;;;;9.85;4.30;;;;;;;;;;7365487;19;20003;-84
2023/10/24 23:07:32;;;;;;;10.13;4.50;;;;;;;;;;7368946;19;20016;-83
2023/10/24 23:09:57;;;;;;;9.93;3.90;;;;;;;;;;7366610;19;20309;-88
2023/10/24 23:12:23;;;;;;;9.43;4.70;;;;;;;;;;7365208;19;20391;-80
2023/10/24 23:14:48;;;;;;;11.05;3.70;;;;;;;;;;7364947;19;20006;-83
2023/10/24 23:17:13;;;;;;;7.77;3.70;;;;;;;;;;7364699;19;20015;-81
2023/10/24 23:19:38;;;;;;;11.83;3.57;;;;;;;;;;7368659;19;20236;-83
2023/10/24 23:22:03;;;;;;;9.55;4.10;;;;;;;;;;7365698;19;20250;-85
2023/10/24 23:24:28;;;;;;;11.65;3.47;;;;;;;;;;7363607;19;20563;-79
2023/10/24 23:26:54;;;;;;;12.13;4.13;;;;;;;;;;7361871;19;19998;-82
2023/10/24 23:29:19;;;;;;;9.32;4.32;;;;;;;;;;7371591;19;20224;-79
2023/10/24 23:31:44;;;;;;;10.70;4.43;;;;;;;;;;7362581;19;20011;-85
2023/10/24 23:34:10;;;;;;;9.80;4.07;;;;;;;;;;7365705;19;20014;-83
2023/10/24 23:36:35;;;;;;;10.23;3.67;;;;;;;;;;7365209;19;20231;-80
2023/10/24 23:39:00;;;;;;;10.37;3.37;;;;;;;;;;7362506;19;20007;-85
2023/10/24 23:41:27;;;;;;;11.90;4.40;;;;;;;;;;7340478;19;20262;-84
2023/10/24 23:43:52;;;;;;;12.63;5.30;;;;;;;;;;7370189;19;20257;-81
2023/10/24 23:46:17;;;;;;;11.65;5.40;;;;;;;;;;7364837;19;20576;-81
2023/10/24 23:48:42;;;;;;;11.43;5.72;;;;;;;;;;7366813;19;20915;-82
2023/10/24 23:51:07;;;;;;;13.68;6.45;;;;;;;;;;7364257;19;20280;-82
2023/10/24 23:53:33;;;;;;;18.23;8.10;;;;;;;;;;7365911;19;20264;-87
2023/10/24 23:55:58;;;;;;;12.80;7.23;;;;;;;;;;7361994;19;20736;-81
2023/10/24 23:58:23;;;;;;;15.03;6.80;;;;;;;;;;7371012;19;20255;-81
